Time;durP1;ratioP1;P1;durP2;ratioP2;P2;SDS_P1;SDS_P2;PMS_P1;PMS_P2;Temp;Humidity;BMP_temperature;BMP_pressure;BME280_temperature;BME280_humidity;BME280_pressure;Samples;Min_cycle;Max_cycle;Signal;HPM_P1;HPM_P2
2023/06/14 00:00:44;;;;;;;1.00;0.40;;;18.10;90.10;;;;;;5003323;28;20027;-79
2023/06/14 00:03:11;;;;;;;2.80;0.50;;;18.00;90.20;;;;;;4989619;28;20182;-78
2023/06/14 00:05:42;;;;;;;1.88;0.50;;;17.90;90.00;;;;;;4966918;28;20172;-78
2023/06/14 00:08:11;;;;;;;2.42;0.60;;;17.90;90.60;;;;;;5019197;28;20130;-78
2023/06/14 00:10:37;;;;;;;1.38;0.40;;;17.80;90.60;;;;;;5018390;28;20034;-78
2023/06/14 00:13:04;;;;;;;0.88;0.30;;;17.80;90.60;;;;;;5016726;28;20367;-77
2023/06/14 00:15:33;;;;;;;1.48;0.50;;;17.70;90.60;;;;;;5003720;28;20372;-78
2023/06/14 00:18:00;;;;;;;1.43;0.40;;;17.70;90.80;;;;;;5003064;28;20026;-78
2023/06/14 00:20:32;;;;;;;1.25;0.50;;;17.60;90.70;;;;;;5003277;28;20106;-78
2023/06/14 00:22:58;;;;;;;2.75;0.50;;;17.50;91.50;;;;;;5004599;28;20034;-78
2023/06/14 00:25:27;;;;;;;1.45;0.40;;;17.50;90.90;;;;;;4984517;28;20387;-78
2023/06/14 00:27:57;;;;;;;2.67;0.50;;;17.50;91.00;;;;;;4986943;28;20487;-77
2023/06/14 00:30:23;;;;;;;1.25;0.40;;;17.40;91.10;;;;;;4988168;28;20313;-78
2023/06/14 00:32:49;;;;;;;1.20;0.40;;;17.40;91.50;;;;;;4987137;28;20027;-79
2023/06/14 00:35:15;;;;;;;0.80;0.30;;;17.30;91.60;;;;;;4982178;28;20153;-78
2023/06/14 00:37:41;;;;;;;2.17;0.50;;;17.20;91.70;;;;;;4968362;28;20125;-79
2023/06/14 00:40:08;;;;;;;1.45;0.50;;;17.10;91.80;;;;;;4992329;28;20516;-78
2023/06/14 00:42:33;;;;;;;1.80;0.40;;;17.10;92.10;;;;;;4965538;28;20030;-77
2023/06/14 00:45:00;;;;;;;2.80;0.40;;;17.10;92.00;;;;;;4983286;28;20520;-78
2023/06/14 00:47:26;;;;;;;2.15;0.50;;;17.00;92.00;;;;;;5000393;28;20045;-79
2023/06/14 00:49:53;;;;;;;1.10;0.40;;;17.00;92.30;;;;;;4987054;28;20029;-79
2023/06/14 00:52:20;;;;;;;2.83;0.82;;;17.00;92.40;;;;;;5002424;28;20022;-80
2023/06/14 00:54:46;;;;;;;2.15;0.30;;;16.90;92.50;;;;;;5003443;28;20026;-79
2023/06/14 00:57:12;;;;;;;2.22;0.32;;;16.80;92.60;;;;;;5014297;28;20040;-80
2023/06/14 00:59:45;;;;;;;1.80;0.40;;;16.70;92.80;;;;;;5013996;28;20034;-80
2023/06/14 01:02:12;;;;;;;0.80;0.30;;;16.80;92.90;;;;;;4968187;28;20041;-79
2023/06/14 01:04:41;;;;;;;1.63;0.50;;;16.70;93.20;;;;;;4999041;28;20081;-80
2023/06/14 01:07:33;;;;;;;2.55;0.32;;;16.60;93.20;;;;;;4969764;28;20037;-79
2023/06/14 01:10:24;;;;;;;1.65;0.40;;;16.60;93.30;;;;;;5020536;28;20026;-78
2023/06/14 01:13:06;;;;;;;3.03;0.50;;;16.50;93.40;;;;;;4977382;28;20042;-78
2023/06/14 01:15:32;;;;;;;1.80;0.40;;;16.50;93.10;;;;;;4982835;28;20035;-77
2023/06/14 01:18:03;;;;;;;1.80;0.40;;;16.40;93.60;;;;;;5002474;28;20030;-79
2023/06/14 01:20:36;;;;;;;2.03;0.40;;;16.50;93.50;;;;;;5003735;28;20042;-77
2023/06/14 01:23:03;;;;;;;1.45;0.50;;;16.30;93.60;;;;;;4987852;28;20034;-78
2023/06/14 01:25:30;;;;;;;1.50;0.50;;;16.30;93.80;;;;;;4999905;28;20463;-78
2023/06/14 01:28:03;;;;;;;3.13;0.47;;;16.30;94.00;;;;;;4986898;28;20084;-77
2023/06/14 01:30:30;;;;;;;3.20;0.50;;;16.30;94.10;;;;;;4966056;28;20022;-78
2023/06/14 01:32:57;;;;;;;2.90;0.50;;;16.20;94.00;;;;;;5002151;28;20030;-78
2023/06/14 01:35:24;;;;;;;1.40;0.40;;;16.20;94.10;;;;;;4984210;28;20066;-78
2023/06/14 01:37:51;;;;;;;2.38;0.40;;;16.20;94.30;;;;;;4997262;28;20034;-77
2023/06/14 01:40:18;;;;;;;2.55;0.40;;;16.20;94.50;;;;;;4984801;28;20061;-77
2023/06/14 01:42:47;;;;;;;1.80;0.50;;;16.10;94.60;;;;;;4987634;28;20475;-77
2023/06/14 01:45:14;;;;;;;1.40;0.40;;;16.00;94.70;;;;;;4983565;28;20022;-78
2023/06/14 01:47:40;;;;;;;3.47;0.40;;;16.00;94.80;;;;;;5011618;28;20030;-77
2023/06/14 01:50:06;;;;;;;1.73;0.40;;;15.90;95.30;;;;;;4989357;28;20133;-77
2023/06/14 01:52:32;;;;;;;1.25;0.40;;;15.90;95.20;;;;;;4985265;28;20101;-78
2023/06/14 01:54:58;;;;;;;5.15;0.43;;;15.90;95.30;;;;;;5014164;28;20109;-77
2023/06/14 01:57:26;;;;;;;1.23;0.40;;;15.90;95.30;;;;;;5014554;28;20054;-77
2023/06/14 01:59:52;;;;;;;0.90;0.30;;;15.80;95.80;;;;;;5017366;28;20092;-77
2023/06/14 02:02:18;;;;;;;2.50;0.30;;;15.80;95.40;;;;;;4968573;28;20377;-77
2023/06/14 02:04:44;;;;;;;2.00;0.40;;;15.70;96.00;;;;;;5001878;28;20269;-77
2023/06/14 02:07:11;;;;;;;0.82;0.30;;;15.70;95.90;;;;;;4985017;28;20106;-77
2023/06/14 02:09:36;;;;;;;1.92;0.40;;;15.70;95.90;;;;;;4972965;28;20257;-77
2023/06/14 02:12:02;;;;;;;4.57;0.40;;;15.60;96.20;;;;;;4972507;28;20066;-77
2023/06/14 02:14:29;;;;;;;1.30;0.47;;;15.60;96.60;;;;;;4987531;28;20030;-77
2023/06/14 02:16:54;;;;;;;1.48;0.40;;;15.60;96.30;;;;;;4984332;28;20468;-78
2023/06/14 02:19:21;;;;;;;1.15;0.40;;;15.60;96.50;;;;;;5002226;28;20053;-78
2023/06/14 02:21:47;;;;;;;1.20;0.40;;;15.50;96.70;;;;;;5000843;28;20058;-77
2023/06/14 02:24:13;;;;;;;1.83;0.40;;;15.50;96.70;;;;;;4991325;28;20033;-79
2023/06/14 02:26:39;;;;;;;1.70;0.47;;;15.50;96.80;;;;;;4987502;28;20026;-79
2023/06/14 02:29:05;;;;;;;3.38;0.40;;;15.50;96.90;;;;;;4987413;28;20058;-79
2023/06/14 02:31:33;;;;;;;1.40;0.40;;;15.50;97.10;;;;;;4990053;28;20026;-79
2023/06/14 02:33:59;;;;;;;3.08;0.40;;;15.50;97.20;;;;;;4987361;28;20395;-80
2023/06/14 02:36:24;;;;;;;1.92;0.50;;;15.40;97.10;;;;;;4987890;28;20030;-79
2023/06/14 02:38:50;;;;;;;2.28;0.40;;;15.40;97.50;;;;;;4989757;28;20026;-80
2023/06/14 02:41:16;;;;;;;5.15;0.50;;;15.40;97.40;;;;;;4984645;28;20479;-80
2023/06/14 02:43:42;;;;;;;0.93;0.30;;;15.40;97.20;;;;;;4988641;28;20035;-79
2023/06/14 02:46:08;;;;;;;1.08;0.40;;;15.30;97.70;;;;;;4992873;28;20041;-79
2023/06/14 02:48:34;;;;;;;1.50;0.40;;;15.30;97.90;;;;;;5007264;28;20022;-80
2023/06/14 02:51:00;;;;;;;0.98;0.40;;;15.30;98.10;;;;;;5020312;28;22103;-80
2023/06/14 02:53:27;;;;;;;1.27;0.40;;;15.30;98.20;;;;;;4989261;28;20125;-79
2023/06/14 02:55:55;;;;;;;2.17;0.55;;;15.20;98.40;;;;;;4990998;28;20023;-80
2023/06/14 02:58:21;;;;;;;2.00;0.47;;;15.30;98.20;;;;;;4985431;28;20113;-79
2023/06/14 03:00:48;;;;;;;2.08;0.50;;;15.20;98.40;;;;;;4990208;28;20455;-80
2023/06/14 03:03:16;;;;;;;1.65;0.50;;;15.20;98.70;;;;;;5018515;28;20034;-79
2023/06/14 03:05:49;;;;;;;0.80;0.30;;;15.10;98.70;;;;;;4989638;28;20030;-80
2023/06/14 03:08:22;;;;;;;1.20;0.32;;;15.10;98.90;;;;;;4986001;28;20062;-79
2023/06/14 03:10:51;;;;;;;3.70;0.40;;;15.00;99.50;;;;;;5001996;28;20045;-79
2023/06/14 03:13:21;;;;;;;1.92;0.50;;;15.00;99.40;;;;;;5006698;28;20041;-81
2023/06/14 03:15:50;;;;;;;1.27;0.40;;;15.00;98.60;;;;;;4970122;28;20098;-81
2023/06/14 03:18:17;;;;;;;1.20;0.40;;;15.00;99.30;;;;;;5020735;28;20471;-80
2023/06/14 03:20:45;;;;;;;1.20;0.30;;;15.00;99.40;;;;;;5002801;28;20069;-81
2023/06/14 03:23:12;;;;;;;1.38;0.50;;;15.00;99.40;;;;;;4967023;28;20446;-81
2023/06/14 03:25:40;;;;;;;1.83;0.40;;;15.00;99.50;;;;;;4988814;28;20063;-80
2023/06/14 03:28:06;;;;;;;2.08;0.40;;;15.00;99.40;;;;;;4990372;28;20023;-81
2023/06/14 03:30:32;;;;;;;1.42;0.50;;;15.00;99.70;;;;;;5016587;28;20023;-81
2023/06/14 03:33:00;;;;;;;2.33;0.40;;;15.00;99.90;;;;;;5001747;28;20041;-81
2023/06/14 03:35:28;;;;;;;1.52;0.30;;;15.00;99.80;;;;;;4974080;28;20085;-81
2023/06/14 03:37:54;;;;;;;2.20;0.43;;;15.00;99.90;;;;;;4972095;28;20028;-81
2023/06/14 03:40:21;;;;;;;1.50;0.40;;;14.90;99.90;;;;;;5003547;28;20471;-79
2023/06/14 03:42:51;;;;;;;1.08;0.30;;;14.90;99.60;;;;;;4988351;28;20072;-81
2023/06/14 03:45:17;;;;;;;1.13;0.40;;;15.00;99.90;;;;;;5002749;28;20399;-80
2023/06/14 03:47:43;;;;;;;0.98;0.40;;;14.90;99.90;;;;;;4985926;28;20081;-80
2023/06/14 03:50:10;;;;;;;1.52;0.40;;;15.00;99.90;;;;;;4985499;28;20415;-81
2023/06/14 03:52:36;;;;;;;1.27;0.40;;;14.90;99.90;;;;;;4987366;28;20046;-79
2023/06/14 03:55:03;;;;;;;1.85;0.40;;;14.90;99.90;;;;;;4988508;28;20023;-80
2023/06/14 03:57:31;;;;;;;1.85;0.40;;;15.00;99.90;;;;;;5015884;28;20110;-78
2023/06/14 03:59:57;;;;;;;1.20;0.40;;;15.00;99.90;;;;;;5005165;28;20448;-79
2023/06/14 04:02:23;;;;;;;1.48;0.40;;;15.00;99.90;;;;;;4967888;28;20647;-79
2023/06/14 04:04:49;;;;;;;2.85;0.40;;;15.00;99.90;;;;;;5014585;28;20117;-79
2023/06/14 04:07:19;;;;;;;1.48;0.40;;;15.00;99.90;;;;;;4986528;28;20034;-79
2023/06/14 04:09:45;;;;;;;2.92;0.43;;;15.10;99.90;;;;;;4986070;28;20026;-80
2023/06/14 04:12:14;;;;;;;4.40;0.50;;;15.10;99.90;;;;;;4984493;28;20038;-79
2023/06/14 04:14:40;;;;;;;2.10;0.40;;;15.10;99.90;;;;;;4969735;28;20018;-80
2023/06/14 04:17:07;;;;;;;1.38;0.45;;;15.10;99.90;;;;;;5019587;28;20034;-81
2023/06/14 04:19:33;;;;;;;1.27;0.40;;;15.10;99.90;;;;;;4988749;28;20026;-81
2023/06/14 04:22:01;;;;;;;1.10;0.32;;;15.10;99.90;;;;;;4987512;28;20057;-80
2023/06/14 04:24:31;;;;;;;2.67;0.40;;;15.20;99.90;;;;;;4987240;28;20035;-79
2023/06/14 04:27:03;;;;;;;2.88;0.43;;;15.30;99.90;;;;;;4969275;28;20030;-80
2023/06/14 04:29:31;;;;;;;3.45;0.63;;;15.30;99.90;;;;;;5005173;28;20026;-79
2023/06/14 04:32:01;;;;;;;1.70;0.50;;;15.40;99.90;;;;;;4969665;28;20506;-79
2023/06/14 04:34:31;;;;;;;0.90;0.40;;;15.50;99.90;;;;;;4969788;28;20474;-79
2023/06/14 04:36:58;;;;;;;1.40;0.40;;;15.50;99.90;;;;;;4967972;28;20483;-80
2023/06/14 04:39:30;;;;;;;1.65;0.55;;;15.60;99.90;;;;;;4966916;28;20396;-79
2023/06/14 04:42:00;;;;;;;1.73;0.40;;;15.80;99.90;;;;;;4986596;28;20026;-81
2023/06/14 04:44:29;;;;;;;2.58;0.40;;;16.00;99.90;;;;;;4997131;28;20361;-80
2023/06/14 04:46:59;;;;;;;1.52;0.40;;;16.10;99.90;;;;;;4968751;28;20121;-80
2023/06/14 04:49:26;;;;;;;1.77;0.50;;;16.20;99.90;;;;;;4967486;28;20460;-80
2023/06/14 04:51:57;;;;;;;1.00;0.40;;;16.50;99.90;;;;;;4984523;28;20302;-81
2023/06/14 04:54:27;;;;;;;1.33;0.40;;;16.60;99.90;;;;;;5001672;28;20064;-81
2023/06/14 04:56:55;;;;;;;2.50;0.50;;;16.80;99.90;;;;;;5003259;28;20049;-80
2023/06/14 04:59:23;;;;;;;1.25;0.43;;;17.10;99.90;;;;;;4978012;28;20332;-80
2023/06/14 05:01:50;;;;;;;3.05;0.40;;;17.20;99.80;;;;;;4983731;28;20538;-80
2023/06/14 05:04:17;;;;;;;2.78;0.40;;;17.40;99.20;;;;;;5015238;28;20038;-79
2023/06/14 05:06:45;;;;;;;1.02;0.30;;;17.60;99.00;;;;;;4986156;28;20026;-79
2023/06/14 05:09:16;;;;;;;1.10;0.40;;;17.70;98.50;;;;;;4985326;28;20054;-78
2023/06/14 05:11:44;;;;;;;1.98;0.55;;;17.70;99.00;;;;;;4985630;28;20440;-79
2023/06/14 05:14:14;;;;;;;1.20;0.47;;;17.80;98.30;;;;;;5005772;28;20022;-79
2023/06/14 05:16:40;;;;;;;2.92;0.50;;;18.00;98.20;;;;;;4994644;28;20034;-80
2023/06/14 05:19:06;;;;;;;1.50;0.40;;;18.10;97.60;;;;;;4980762;28;20027;-79
2023/06/14 05:21:34;;;;;;;3.05;0.50;;;18.20;97.20;;;;;;4987194;28;20046;-77
2023/06/14 05:24:00;;;;;;;1.52;0.50;;;18.40;97.30;;;;;;4986806;28;20038;-79
2023/06/14 05:26:30;;;;;;;1.10;0.50;;;18.40;97.10;;;;;;5014336;28;20368;-81
2023/06/14 05:29:00;;;;;;;3.65;0.70;;;18.50;96.90;;;;;;5003871;28;20085;-79
2023/06/14 05:31:26;;;;;;;4.63;0.43;;;18.50;96.70;;;;;;4998819;28;20085;-78
2023/06/14 05:33:53;;;;;;;1.75;0.50;;;18.50;96.70;;;;;;5014726;28;20030;-80
2023/06/14 05:36:21;;;;;;;1.17;0.43;;;18.70;96.60;;;;;;4982257;28;20042;-79
2023/06/14 05:38:46;;;;;;;4.10;0.30;;;18.80;96.40;;;;;;4986225;28;20201;-80
2023/06/14 05:41:12;;;;;;;1.30;0.50;;;18.90;96.30;;;;;;4968170;28;20034;-79
2023/06/14 05:43:38;;;;;;;3.08;0.60;;;19.00;96.20;;;;;;4982570;28;20388;-79
2023/06/14 05:46:09;;;;;;;1.25;0.50;;;19.00;96.20;;;;;;5002203;28;20026;-80
2023/06/14 05:48:35;;;;;;;2.03;0.50;;;19.30;95.80;;;;;;5001555;28;20053;-79
2023/06/14 05:51:00;;;;;;;2.17;0.63;;;19.30;95.80;;;;;;5011596;28;20034;-79
2023/06/14 05:53:26;;;;;;;3.25;0.52;;;19.40;95.60;;;;;;4982193;28;20141;-81
2023/06/14 05:55:54;;;;;;;2.10;0.32;;;19.60;95.60;;;;;;5014585;28;20022;-79
2023/06/14 05:58:20;;;;;;;2.17;0.40;;;19.90;95.50;;;;;;4987258;28;20038;-80
2023/06/14 06:00:46;;;;;;;3.00;0.50;;;19.90;95.20;;;;;;4982300;28;20475;-79
2023/06/14 06:03:12;;;;;;;4.13;0.50;;;20.10;95.20;;;;;;4979108;28;20084;-83
2023/06/14 06:05:39;;;;;;;1.88;0.50;;;20.10;95.00;;;;;;4968411;28;20037;-80
2023/06/14 06:08:05;;;;;;;1.42;0.50;;;20.10;94.80;;;;;;4978345;28;20514;-82
2023/06/14 06:10:30;;;;;;;1.45;0.40;;;20.30;94.80;;;;;;4985137;28;20015;-81
2023/06/14 06:12:56;;;;;;;2.55;0.50;;;20.40;94.50;;;;;;4985939;28;20081;-82
2023/06/14 06:15:22;;;;;;;2.15;0.40;;;20.30;94.60;;;;;;5002657;28;20129;-79
2023/06/14 06:17:48;;;;;;;2.35;0.40;;;20.60;94.70;;;;;;4962873;28;20053;-82
2023/06/14 06:20:13;;;;;;;2.40;0.50;;;20.60;94.40;;;;;;4983810;28;20055;-82
2023/06/14 06:22:39;;;;;;;1.50;0.50;;;20.70;94.50;;;;;;4983139;28;20031;-82
2023/06/14 06:25:06;;;;;;;1.83;0.40;;;20.90;94.30;;;;;;4981638;28;20028;-82
2023/06/14 06:27:32;;;;;;;1.77;0.50;;;21.00;94.40;;;;;;4984680;28;20117;-81
2023/06/14 06:29:57;;;;;;;1.67;0.40;;;21.40;94.20;;;;;;4963676;28;20627;-81
2023/06/14 06:32:23;;;;;;;1.17;0.40;;;21.50;93.80;;;;;;4985238;28;20515;-78
2023/06/14 06:34:49;;;;;;;2.28;0.50;;;21.70;93.80;;;;;;4995636;28;20456;-80
2023/06/14 06:37:15;;;;;;;1.88;0.47;;;21.70;93.40;;;;;;4981517;28;20030;-79
2023/06/14 06:39:40;;;;;;;3.13;0.60;;;21.90;93.20;;;;;;4981943;28;20022;-78
2023/06/14 06:42:06;;;;;;;1.42;0.50;;;22.00;93.20;;;;;;5001800;28;20480;-82
2023/06/14 06:44:36;;;;;;;1.27;0.40;;;22.00;93.20;;;;;;4984816;28;20050;-80
2023/06/14 06:47:02;;;;;;;2.10;0.50;;;22.10;92.70;;;;;;4998266;28;20487;-80
2023/06/14 06:49:27;;;;;;;2.97;0.40;;;22.00;92.50;;;;;;5011585;28;21156;-82
2023/06/14 06:52:05;;;;;;;1.13;0.35;;;22.20;92.50;;;;;;4995281;28;20133;-80
2023/06/14 06:54:31;;;;;;;1.80;0.40;;;22.40;92.30;;;;;;4984812;28;20027;-78
2023/06/14 06:56:56;;;;;;;0.98;0.40;;;22.60;92.20;;;;;;5002708;28;20398;-77
2023/06/14 06:59:22;;;;;;;2.63;0.30;;;22.70;92.00;;;;;;4986832;28;20614;-77
2023/06/14 07:01:48;;;;;;;1.10;0.45;;;22.60;91.90;;;;;;4980972;28;20415;-79
2023/06/14 07:04:13;;;;;;;2.65;0.30;;;22.50;91.40;;;;;;4970311;28;20038;-77
2023/06/14 07:06:39;;;;;;;1.95;0.60;;;22.50;91.60;;;;;;4979407;28;20054;-78
2023/06/14 07:09:08;;;;;;;1.35;0.30;;;22.80;91.30;;;;;;5000456;28;20106;-80
2023/06/14 07:11:34;;;;;;;1.25;0.40;;;22.90;91.40;;;;;;5017139;28;20034;-78
2023/06/14 07:14:00;;;;;;;0.93;0.30;;;23.00;91.60;;;;;;4982467;28;20331;-77
2023/06/14 07:16:25;;;;;;;1.45;0.30;;;23.30;91.20;;;;;;5002613;28;20027;-78
2023/06/14 07:18:52;;;;;;;0.90;0.30;;;23.30;90.90;;;;;;4989303;28;20049;-77
2023/06/14 07:21:18;;;;;;;2.35;0.40;;;23.40;91.00;;;;;;4988857;28;20050;-79
2023/06/14 07:23:43;;;;;;;0.93;0.30;;;23.30;90.60;;;;;;4982820;28;20030;-79
2023/06/14 07:26:09;;;;;;;2.38;0.30;;;23.60;90.30;;;;;;5019359;28;20022;-78
2023/06/14 07:28:35;;;;;;;0.70;0.30;;;23.60;90.50;;;;;;5001246;28;20484;-79
2023/06/14 07:31:02;;;;;;;0.55;0.20;;;23.50;90.50;;;;;;4989065;28;20113;-81
2023/06/14 07:33:28;;;;;;;2.05;0.30;;;23.80;90.50;;;;;;4982367;28;20468;-79
2023/06/14 07:35:54;;;;;;;0.60;0.22;;;24.20;90.40;;;;;;4980984;28;20107;-80
2023/06/14 07:38:19;;;;;;;1.33;0.20;;;24.20;89.20;;;;;;5005493;28;20042;-79
2023/06/14 07:40:45;;;;;;;1.20;0.20;;;24.30;89.40;;;;;;4989191;28;20068;-81
2023/06/14 07:43:11;;;;;;;1.27;0.20;;;24.30;88.60;;;;;;4997504;28;20033;-81
2023/06/14 07:45:37;;;;;;;0.63;0.22;;;24.20;89.00;;;;;;4988352;28;20383;-81
2023/06/14 07:48:03;;;;;;;1.13;0.30;;;24.50;89.30;;;;;;5001382;28;20053;-81
2023/06/14 07:50:29;;;;;;;0.95;0.20;;;24.60;89.20;;;;;;4987239;28;20064;-78
2023/06/14 07:52:54;;;;;;;1.25;0.30;;;24.30;88.00;;;;;;5002627;28;20137;-79
2023/06/14 07:55:20;;;;;;;1.20;0.20;;;24.40;88.30;;;;;;4983958;28;20030;-78
2023/06/14 07:57:46;;;;;;;1.25;0.20;;;24.90;88.10;;;;;;4985973;28;20486;-79
2023/06/14 08:00:15;;;;;;;0.60;0.20;;;24.90;87.90;;;;;;4986862;28;20030;-78
2023/06/14 08:02:44;;;;;;;0.70;0.23;;;24.90;88.30;;;;;;4987159;28;20018;-78
2023/06/14 08:05:11;;;;;;;2.33;0.30;;;25.10;88.10;;;;;;4988769;28;20336;-79
2023/06/14 08:07:37;;;;;;;0.60;0.20;;;25.20;87.80;;;;;;4987283;28;20034;-80
2023/06/14 08:10:04;;;;;;;2.35;0.20;;;25.10;86.70;;;;;;4983486;28;20034;-79
2023/06/14 08:12:30;;;;;;;1.85;0.30;;;24.80;86.60;;;;;;4987012;28;20046;-79
2023/06/14 08:14:55;;;;;;;1.10;0.30;;;25.30;87.10;;;;;;4998274;28;20018;-79
2023/06/14 08:17:21;;;;;;;1.45;0.22;;;25.20;86.20;;;;;;4980737;28;20034;-80
2023/06/14 08:19:47;;;;;;;1.20;0.20;;;25.50;86.70;;;;;;4988343;28;20023;-79
2023/06/14 08:22:12;;;;;;;1.15;0.30;;;25.50;85.80;;;;;;5018234;28;20112;-80
2023/06/14 08:24:39;;;;;;;1.35;0.20;;;25.50;86.50;;;;;;5002607;28;20081;-79
2023/06/14 08:27:06;;;;;;;0.88;0.20;;;25.30;85.00;;;;;;4985640;28;20058;-78
2023/06/14 08:29:31;;;;;;;1.17;0.22;;;25.30;84.50;;;;;;4988538;28;20491;-80
2023/06/14 08:31:57;;;;;;;0.68;0.20;;;25.30;85.60;;;;;;4987140;28;20050;-78
2023/06/14 08:34:23;;;;;;;1.15;0.20;;;25.60;86.10;;;;;;4986091;28;20490;-80
2023/06/14 08:36:50;;;;;;;0.50;0.20;;;26.00;85.30;;;;;;4998785;28;20034;-80
2023/06/14 08:39:16;;;;;;;1.00;0.30;;;25.90;86.00;;;;;;4990242;28;20160;-81
2023/06/14 08:41:46;;;;;;;1.05;0.20;;;25.70;86.00;;;;;;4969122;28;20118;-78
2023/06/14 08:44:12;;;;;;;0.50;0.20;;;25.90;84.70;;;;;;4987496;28;20031;-79
2023/06/14 08:46:39;;;;;;;1.30;0.30;;;26.00;84.80;;;;;;4986951;28;20044;-79
2023/06/14 08:49:06;;;;;;;0.75;0.30;;;25.90;84.90;;;;;;4987878;28;20038;-80
2023/06/14 08:51:36;;;;;;;1.15;0.28;;;26.10;84.60;;;;;;4983200;28;20038;-81
2023/06/14 08:54:03;;;;;;;1.42;0.30;;;26.20;84.30;;;;;;4995244;28;20027;-80
2023/06/14 08:56:30;;;;;;;0.63;0.25;;;25.90;84.20;;;;;;4998155;28;20128;-78
2023/06/14 08:59:03;;;;;;;1.75;0.30;;;26.20;85.00;;;;;;4983276;28;20666;-79
2023/06/14 09:01:34;;;;;;;0.77;0.20;;;26.10;84.50;;;;;;4982412;28;20058;-81
2023/06/14 09:04:01;;;;;;;0.60;0.20;;;25.80;85.20;;;;;;4987746;28;20031;-79
2023/06/14 09:06:28;;;;;;;0.82;0.20;;;26.20;84.60;;;;;;4996954;28;20118;-80
2023/06/14 09:08:58;;;;;;;0.68;0.20;;;26.40;85.50;;;;;;4981531;28;20145;-80
2023/06/14 09:11:25;;;;;;;;;;;26.30;84.10;;;;;;5016480;28;20383;-79
2023/06/14 09:13:51;;;;;;;0.70;0.20;;;26.10;83.80;;;;;;4969946;28;19953;-80
2023/06/14 09:16:17;;;;;;;0.60;0.20;;;25.90;84.50;;;;;;4998107;28;20295;-80
2023/06/14 09:18:50;;;;;;;0.47;0.15;;;26.10;84.90;;;;;;4985737;28;20026;-79
2023/06/14 09:21:17;;;;;;;0.50;0.20;;;26.30;84.40;;;;;;4979540;28;20482;-79
2023/06/14 09:23:45;;;;;;;0.95;0.20;;;26.40;84.60;;;;;;4981573;28;20100;-81
2023/06/14 09:26:19;;;;;;;0.47;0.20;;;26.30;83.70;;;;;;4985028;28;20123;-81
2023/06/14 09:28:49;;;;;;;1.00;0.20;;;26.10;83.40;;;;;;4985423;28;20447;-78
2023/06/14 09:31:19;;;;;;;0.60;0.20;;;26.50;83.90;;;;;;4984992;28;20049;-79
2023/06/14 09:33:50;;;;;;;1.13;0.22;;;26.50;84.00;;;;;;5013193;28;20030;-80
2023/06/14 09:36:22;;;;;;;1.38;0.20;;;26.50;83.50;;;;;;4985919;28;20121;-80
2023/06/14 09:39:05;;;;;;;0.43;0.20;;;26.70;83.90;;;;;;4980820;28;20026;-79
2023/06/14 09:41:36;;;;;;;0.98;0.20;;;27.10;83.80;;;;;;4996999;28;20097;-80
2023/06/14 09:44:04;;;;;;;1.33;0.20;;;26.90;84.20;;;;;;4965831;28;20034;-80
2023/06/14 09:46:30;;;;;;;0.40;0.20;;;26.50;84.40;;;;;;4997269;28;20121;-79
2023/06/14 09:48:57;;;;;;;1.17;0.30;;;26.60;83.60;;;;;;5001771;28;20289;-81
2023/06/14 09:51:24;;;;;;;0.82;0.20;;;26.40;84.00;;;;;;4986259;28;20046;-80
2023/06/14 09:53:51;;;;;;;0.70;0.20;;;27.10;83.00;;;;;;4986945;28;20035;-81
2023/06/14 09:56:25;;;;;;;0.57;0.20;;;26.70;83.40;;;;;;4995983;28;20038;-79
2023/06/14 09:58:55;;;;;;;0.65;0.20;;;26.50;83.20;;;;;;4984319;28;20120;-79
2023/06/14 10:01:23;;;;;;;0.65;0.20;;;26.50;83.00;;;;;;5013446;28;20049;-79
2023/06/14 10:03:51;;;;;;;0.90;0.20;;;26.80;83.20;;;;;;4979552;28;20038;-79
2023/06/14 10:06:17;;;;;;;1.23;0.20;;;26.60;82.40;;;;;;4985801;28;20061;-80
2023/06/14 10:08:44;;;;;;;0.52;0.20;;;26.60;82.30;;;;;;4985574;28;20058;-80
2023/06/14 10:11:12;;;;;;;0.70;0.20;;;26.90;82.40;;;;;;4985122;28;20218;-80
2023/06/14 10:13:38;;;;;;;0.68;0.20;;;27.40;82.40;;;;;;4998387;28;20422;-79
2023/06/14 10:16:19;;;;;;;0.88;0.20;;;27.30;81.00;;;;;;4987136;28;20030;-80
2023/06/14 10:18:49;;;;;;;0.43;0.17;;;27.60;81.50;;;;;;4982397;28;20401;-79
2023/06/14 10:21:21;;;;;;;0.45;0.20;;;27.80;80.00;;;;;;4984456;28;20157;-80
2023/06/14 10:23:48;;;;;;;0.95;0.10;;;27.40;80.60;;;;;;4965619;28;20107;-81
2023/06/14 10:26:22;;;;;;;0.63;0.20;;;27.50;82.40;;;;;;4986352;28;20081;-81
2023/06/14 10:29:07;;;;;;;1.80;0.20;;;27.00;80.90;;;;;;4984028;28;20027;-78
2023/06/14 10:31:50;;;;;;;1.50;0.20;;;26.70;80.60;;;;;;5004835;28;20483;-80
2023/06/14 10:34:26;;;;;;;1.35;0.20;;;26.40;81.20;;;;;;4997177;28;20057;-80
2023/06/14 10:37:05;;;;;;;0.85;0.20;;;26.80;81.70;;;;;;4969341;28;20030;-81
2023/06/14 10:39:35;;;;;;;1.02;0.17;;;26.90;81.00;;;;;;4964765;28;20031;-79
2023/06/14 10:42:04;;;;;;;0.47;0.17;;;27.00;81.20;;;;;;4987947;28;20035;-78
2023/06/14 10:44:30;;;;;;;0.50;0.20;;;27.20;81.60;;;;;;4995939;28;20029;-79
2023/06/14 10:46:58;;;;;;;0.65;0.20;;;27.00;80.80;;;;;;5018813;28;20298;-81
2023/06/14 10:49:44;;;;;;;0.57;0.20;;;27.30;80.80;;;;;;4999742;28;20117;-80
2023/06/14 10:52:16;;;;;;;0.30;0.15;;;26.90;80.20;;;;;;5001297;28;20551;-80
2023/06/14 10:55:04;;;;;;;0.32;0.20;;;26.80;79.90;;;;;;4986338;28;20031;-80
2023/06/14 10:57:32;;;;;;;0.68;0.20;;;27.10;79.90;;;;;;5002208;28;20472;-80
2023/06/14 11:00:00;;;;;;;2.85;0.20;;;27.10;80.00;;;;;;4989714;28;20062;-80
2023/06/14 11:02:38;;;;;;;1.55;0.20;;;27.60;79.60;;;;;;5018684;28;20125;-82
2023/06/14 11:05:07;;;;;;;0.70;0.20;;;27.60;81.60;;;;;;5018383;28;20110;-81
2023/06/14 11:07:51;;;;;;;0.40;0.10;;;27.10;80.40;;;;;;5004043;28;20467;-81
2023/06/14 11:10:37;;;;;;;0.68;0.20;;;27.20;80.30;;;;;;4984557;28;20035;-81
2023/06/14 11:13:03;;;;;;;1.77;0.22;;;27.00;80.60;;;;;;5017906;28;20045;-80
2023/06/14 11:15:37;;;;;;;1.95;0.10;;;27.50;80.60;;;;;;4984191;28;20035;-81
2023/06/14 11:18:05;;;;;;;0.40;0.10;;;27.20;79.90;;;;;;5004828;28;20072;-80
2023/06/14 11:20:33;;;;;;;0.55;0.20;;;27.30;80.80;;;;;;4985727;28;20050;-79
2023/06/14 11:22:59;;;;;;;0.60;0.20;;;27.40;80.60;;;;;;4968667;28;20026;-80
2023/06/14 11:25:26;;;;;;;0.60;0.20;;;26.80;80.70;;;;;;5015912;28;20026;-80
2023/06/14 11:27:52;;;;;;;0.52;0.20;;;27.20;81.40;;;;;;5003409;28;20027;-81
2023/06/14 11:30:18;;;;;;;1.35;0.20;;;27.10;81.60;;;;;;4983852;28;20479;-80
2023/06/14 11:32:51;;;;;;;1.30;0.20;;;27.60;81.30;;;;;;4989421;28;20039;-81
2023/06/14 11:35:18;;;;;;;0.60;0.20;;;28.00;81.10;;;;;;4998101;28;20035;-80
2023/06/14 11:37:44;;;;;;;0.52;0.20;;;27.50;81.50;;;;;;4969118;28;20077;-81
2023/06/14 11:40:11;;;;;;;1.40;0.10;;;27.40;80.80;;;;;;4995525;28;20386;-80
2023/06/14 11:42:39;;;;;;;0.50;0.13;;;27.80;80.60;;;;;;4988471;28;20038;-81
2023/06/14 11:45:09;;;;;;;1.95;0.20;;;27.30;81.20;;;;;;4999312;28;20361;-79
2023/06/14 11:47:36;;;;;;;1.13;0.20;;;27.40;80.60;;;;;;4985058;28;20472;-82
2023/06/14 11:50:03;;;;;;;1.27;0.20;;;27.10;81.40;;;;;;4982992;28;20027;-81
2023/06/14 11:52:30;;;;;;;0.85;0.20;;;27.40;81.90;;;;;;4966752;28;20077;-80
2023/06/14 11:54:56;;;;;;;1.15;0.10;;;27.20;81.20;;;;;;4974508;28;20023;-80
2023/06/14 11:57:24;;;;;;;1.50;0.20;;;27.40;81.00;;;;;;4988078;28;20390;-80
2023/06/14 11:59:49;;;;;;;1.38;0.15;;;27.30;81.50;;;;;;4996215;28;20109;-80
2023/06/14 12:02:19;;;;;;;0.50;0.10;;;27.10;82.10;;;;;;4970930;28;20408;-79
2023/06/14 12:04:48;;;;;;;0.40;0.20;;;27.30;82.20;;;;;;4987059;28;20073;-80
2023/06/14 12:07:17;;;;;;;0.60;0.20;;;27.00;82.80;;;;;;4982917;28;20038;-79
2023/06/14 12:10:07;;;;;;;0.80;0.20;;;27.30;82.20;;;;;;4968694;28;20042;-80
2023/06/14 12:12:38;;;;;;;0.40;0.20;;;27.40;81.00;;;;;;5014659;28;20384;-81
2023/06/14 12:15:05;;;;;;;1.55;0.20;;;27.30;80.50;;;;;;4969034;28;20578;-80
2023/06/14 12:17:36;;;;;;;0.30;0.10;;;27.40;80.50;;;;;;4981969;28;20097;-79
2023/06/14 12:20:21;;;;;;;0.30;0.10;;;27.60;80.60;;;;;;4984722;28;20030;-80
2023/06/14 12:23:02;;;;;;;0.40;0.13;;;28.10;81.90;;;;;;4983414;28;20046;-81
2023/06/14 12:25:35;;;;;;;0.35;0.10;;;27.50;81.10;;;;;;5011906;28;20054;-80
2023/06/14 12:28:08;;;;;;;0.73;0.10;;;27.70;81.20;;;;;;4999338;28;20031;-80
2023/06/14 12:30:35;;;;;;;1.10;0.10;;;27.60;81.00;;;;;;5014236;28;20085;-81
2023/06/14 12:33:02;;;;;;;0.40;0.17;;;27.30;81.50;;;;;;4983543;28;20097;-81
2023/06/14 12:35:28;;;;;;;0.45;0.13;;;27.00;81.30;;;;;;4984260;28;20100;-81
2023/06/14 12:37:54;;;;;;;0.70;0.20;;;27.40;81.20;;;;;;4982617;28;20034;-81
2023/06/14 12:40:19;;;;;;;0.28;0.10;;;27.60;81.50;;;;;;4998520;28;20073;-81
2023/06/14 12:42:48;;;;;;;1.17;0.10;;;27.50;81.00;;;;;;4988451;28;20026;-80
2023/06/14 12:45:14;;;;;;;0.40;0.10;;;26.90;81.10;;;;;;4997059;28;20046;-80
2023/06/14 12:47:40;;;;;;;0.77;0.10;;;26.80;80.80;;;;;;5002357;28;20031;-80
2023/06/14 12:50:06;;;;;;;1.10;0.20;;;26.80;81.30;;;;;;5003452;28;20472;-80
2023/06/14 12:52:36;;;;;;;2.08;0.10;;;27.00;81.00;;;;;;5003060;28;20054;-82